sensor_id;sensor_type;location;lat;lon;timestamp;P1;durP1;ratioP1;P2;durP2;ratioP2
50851;SDS011;43953;45.508;-122.806;2023-09-30T00:00:07;3.10;;;1.35;;
50851;SDS011;43953;45.508;-122.806;2023-09-30T00:00:39;6.53;;;1.40;;
50851;SDS011;43953;45.508;-122.806;2023-09-30T00:01:11;3.45;;;1.27;;
50851;SDS011;43953;45.508;-122.806;2023-09-30T00:01:45;2.55;;;1.10;;
50851;SDS011;43953;45.508;-122.806;2023-09-30T00:02:17;4.35;;;1.10;;
50851;SDS011;43953;45.508;-122.806;2023-09-30T00:02:49;6.50;;;1.20;;
50851;SDS011;43953;45.508;-122.806;2023-09-30T00:03:21;5.38;;;1.20;;
50851;SDS011;43953;45.508;-122.806;2023-09-30T00:03:53;3.50;;;1.10;;
50851;SDS011;43953;45.508;-122.806;2023-09-30T00:04:24;6.93;;;1.30;;
50851;SDS011;43953;45.508;-122.806;2023-09-30T00:04:58;7.63;;;1.60;;
50851;SDS011;43953;45.508;-122.806;2023-09-30T00:05:29;7.50;;;1.85;;
50851;SDS011;43953;45.508;-122.806;2023-09-30T00:06:01;6.25;;;1.65;;
50851;SDS011;43953;45.508;-122.806;2023-09-30T00:06:34;7.55;;;1.75;;
50851;SDS011;43953;45.508;-122.806;2023-09-30T00:07:06;5.47;;;1.50;;
50851;SDS011;43953;45.508;-122.806;2023-09-30T00:07:38;3.85;;;1.38;;
50851;SDS011;43953;45.508;-122.806;2023-09-30T00:08:10;4.20;;;1.25;;
50851;SDS011;43953;45.508;-122.806;2023-09-30T00:08:42;5.13;;;1.35;;
50851;SDS011;43953;45.508;-122.806;2023-09-30T00:09:14;7.57;;;1.40;;
50851;SDS011;43953;45.508;-122.806;2023-09-30T00:09:46;2.47;;;1.10;;
50851;SDS011;43953;45.508;-122.806;2023-09-30T00:10:18;4.68;;;1.23;;
50851;SDS011;43953;45.508;-122.806;2023-09-30T00:10:50;5.72;;;1.17;;
50851;SDS011;43953;45.508;-122.806;2023-09-30T00:11:23;6.13;;;1.30;;
50851;SDS011;43953;45.508;-122.806;2023-09-30T00:11:55;3.80;;;1.27;;
50851;SDS011;43953;45.508;-122.806;2023-09-30T00:12:27;1.90;;;1.08;;
50851;SDS011;43953;45.508;-122.806;2023-09-30T00:12:58;2.75;;;1.20;;
50851;SDS011;43953;45.508;-122.806;2023-09-30T00:13:30;4.35;;;1.08;;
50851;SDS011;43953;45.508;-122.806;2023-09-30T00:14:02;5.13;;;1.40;;
50851;SDS011;43953;45.508;-122.806;2023-09-30T00:14:35;3.92;;;1.30;;
50851;SDS011;43953;45.508;-122.806;2023-09-30T00:15:08;5.13;;;1.13;;
50851;SDS011;43953;45.508;-122.806;2023-09-30T00:15:40;4.60;;;1.38;;
50851;SDS011;43953;45.508;-122.806;2023-09-30T00:16:12;6.63;;;1.35;;
50851;SDS011;43953;45.508;-122.806;2023-09-30T00:16:43;4.57;;;1.33;;
50851;SDS011;43953;45.508;-122.806;2023-09-30T00:17:15;5.90;;;1.27;;
50851;SDS011;43953;45.508;-122.806;2023-09-30T00:17:47;4.88;;;1.30;;
50851;SDS011;43953;45.508;-122.806;2023-09-30T00:18:19;6.65;;;1.40;;
50851;SDS011;43953;45.508;-122.806;2023-09-30T00:18:50;7.35;;;1.52;;
50851;SDS011;43953;45.508;-122.806;2023-09-30T00:19:24;4.15;;;1.40;;
50851;SDS011;43953;45.508;-122.806;2023-09-30T00:19:56;3.83;;;1.35;;
50851;SDS011;43953;45.508;-122.806;2023-09-30T00:20:29;5.55;;;1.38;;
50851;SDS011;43953;45.508;-122.806;2023-09-30T00:21:01;6.70;;;1.88;;
50851;SDS011;43953;45.508;-122.806;2023-09-30T00:21:33;6.85;;;1.77;;
50851;SDS011;43953;45.508;-122.806;2023-09-30T00:22:05;8.38;;;1.30;;
50851;SDS011;43953;45.508;-122.806;2023-09-30T00:22:37;3.72;;;1.20;;
50851;SDS011;43953;45.508;-122.806;2023-09-30T00:23:08;4.90;;;1.30;;
50851;SDS011;43953;45.508;-122.806;2023-09-30T00:23:40;6.72;;;1.60;;
50851;SDS011;43953;45.508;-122.806;2023-09-30T00:24:12;7.05;;;1.30;;
50851;SDS011;43953;45.508;-122.806;2023-09-30T00:24:44;8.98;;;1.80;;
50851;SDS011;43953;45.508;-122.806;2023-09-30T00:25:15;6.80;;;1.50;;
50851;SDS011;43953;45.508;-122.806;2023-09-30T00:25:47;4.25;;;1.30;;
50851;SDS011;43953;45.508;-122.806;2023-09-30T00:26:22;5.28;;;1.52;;
50851;SDS011;43953;45.508;-122.806;2023-09-30T00:26:53;5.70;;;1.30;;
50851;SDS011;43953;45.508;-122.806;2023-09-30T00:27:25;7.63;;;1.50;;
50851;SDS011;43953;45.508;-122.806;2023-09-30T00:27:57;7.85;;;1.42;;
50851;SDS011;43953;45.508;-122.806;2023-09-30T00:28:29;4.85;;;1.40;;
50851;SDS011;43953;45.508;-122.806;2023-09-30T00:29:01;7.88;;;1.52;;
50851;SDS011;43953;45.508;-122.806;2023-09-30T00:29:35;5.53;;;1.40;;
50851;SDS011;43953;45.508;-122.806;2023-09-30T00:30:07;6.75;;;1.48;;
50851;SDS011;43953;45.508;-122.806;2023-09-30T00:30:39;8.30;;;1.77;;
50851;SDS011;43953;45.508;-122.806;2023-09-30T00:31:11;4.30;;;1.55;;
50851;SDS011;43953;45.508;-122.806;2023-09-30T00:31:43;8.75;;;1.60;;
50851;SDS011;43953;45.508;-122.806;2023-09-30T00:32:15;7.13;;;1.60;;
50851;SDS011;43953;45.508;-122.806;2023-09-30T00:32:46;7.05;;;2.00;;
50851;SDS011;43953;45.508;-122.806;2023-09-30T00:33:18;6.40;;;1.75;;
50851;SDS011;43953;45.508;-122.806;2023-09-30T00:33:50;4.47;;;1.60;;
50851;SDS011;43953;45.508;-122.806;2023-09-30T00:34:21;8.02;;;1.52;;
50851;SDS011;43953;45.508;-122.806;2023-09-30T00:34:53;10.07;;;1.60;;
50851;SDS011;43953;45.508;-122.806;2023-09-30T00:35:25;5.72;;;1.75;;
50851;SDS011;43953;45.508;-122.806;2023-09-30T00:35:57;5.97;;;1.55;;
50851;SDS011;43953;45.508;-122.806;2023-09-30T00:36:28;5.22;;;1.73;;
50851;SDS011;43953;45.508;-122.806;2023-09-30T00:37:00;7.35;;;2.20;;
50851;SDS011;43953;45.508;-122.806;2023-09-30T00:37:32;6.85;;;1.70;;
50851;SDS011;43953;45.508;-122.806;2023-09-30T00:38:03;6.07;;;1.65;;
50851;SDS011;43953;45.508;-122.806;2023-09-30T00:38:36;7.53;;;1.70;;
50851;SDS011;43953;45.508;-122.806;2023-09-30T00:39:08;6.00;;;1.80;;
50851;SDS011;43953;45.508;-122.806;2023-09-30T00:39:40;7.47;;;2.08;;
50851;SDS011;43953;45.508;-122.806;2023-09-30T00:40:12;7.50;;;1.73;;
50851;SDS011;43953;45.508;-122.806;2023-09-30T00:40:47;7.88;;;2.08;;
50851;SDS011;43953;45.508;-122.806;2023-09-30T00:41:20;8.63;;;2.10;;
50851;SDS011;43953;45.508;-122.806;2023-09-30T00:41:51;9.73;;;1.55;;
50851;SDS011;43953;45.508;-122.806;2023-09-30T00:42:25;11.40;;;1.60;;
50851;SDS011;43953;45.508;-122.806;2023-09-30T00:42:57;7.15;;;1.63;;
50851;SDS011;43953;45.508;-122.806;2023-09-30T00:43:29;8.50;;;2.08;;
50851;SDS011;43953;45.508;-122.806;2023-09-30T00:44:02;5.85;;;2.00;;
50851;SDS011;43953;45.508;-122.806;2023-09-30T00:44:34;8.02;;;1.90;;
50851;SDS011;43953;45.508;-122.806;2023-09-30T00:45:06;6.93;;;1.60;;
50851;SDS011;43953;45.508;-122.806;2023-09-30T00:45:40;7.55;;;2.15;;
50851;SDS011;43953;45.508;-122.806;2023-09-30T00:46:31;8.82;;;2.00;;
50851;SDS011;43953;45.508;-122.806;2023-09-30T00:47:04;10.65;;;1.83;;
50851;SDS011;43953;45.508;-122.806;2023-09-30T00:47:37;6.72;;;1.70;;
50851;SDS011;43953;45.508;-122.806;2023-09-30T00:48:09;10.13;;;1.73;;
50851;SDS011;43953;45.508;-122.806;2023-09-30T00:48:41;8.10;;;1.80;;
50851;SDS011;43953;45.508;-122.806;2023-09-30T00:49:13;8.98;;;2.20;;
50851;SDS011;43953;45.508;-122.806;2023-09-30T00:49:45;5.80;;;2.13;;
50851;SDS011;43953;45.508;-122.806;2023-09-30T00:50:18;11.65;;;2.15;;
50851;SDS011;43953;45.508;-122.806;2023-09-30T00:50:51;7.28;;;1.65;;
50851;SDS011;43953;45.508;-122.806;2023-09-30T00:51:23;10.32;;;1.80;;
50851;SDS011;43953;45.508;-122.806;2023-09-30T00:51:56;10.43;;;1.92;;
50851;SDS011;43953;45.508;-122.806;2023-09-30T00:52:29;6.50;;;2.40;;
50851;SDS011;43953;45.508;-122.806;2023-09-30T00:53:04;7.53;;;1.92;;
50851;SDS011;43953;45.508;-122.806;2023-09-30T00:53:36;10.10;;;2.83;;
50851;SDS011;43953;45.508;-122.806;2023-09-30T00:54:08;6.20;;;2.05;;
50851;SDS011;43953;45.508;-122.806;2023-09-30T00:54:40;7.40;;;1.90;;
50851;SDS011;43953;45.508;-122.806;2023-09-30T00:55:13;9.05;;;2.03;;
50851;SDS011;43953;45.508;-122.806;2023-09-30T00:55:46;8.10;;;2.28;;
50851;SDS011;43953;45.508;-122.806;2023-09-30T00:56:18;12.32;;;1.98;;
50851;SDS011;43953;45.508;-122.806;2023-09-30T00:56:54;7.60;;;1.98;;
50851;SDS011;43953;45.508;-122.806;2023-09-30T00:57:26;8.98;;;1.60;;
50851;SDS011;43953;45.508;-122.806;2023-09-30T00:57:58;12.50;;;2.15;;
50851;SDS011;43953;45.508;-122.806;2023-09-30T00:58:30;11.93;;;2.55;;
50851;SDS011;43953;45.508;-122.806;2023-09-30T00:59:05;5.72;;;2.20;;
50851;SDS011;43953;45.508;-122.806;2023-09-30T00:59:36;11.25;;;3.22;;
50851;SDS011;43953;45.508;-122.806;2023-09-30T01:00:10;7.13;;;2.60;;
50851;SDS011;43953;45.508;-122.806;2023-09-30T01:00:42;5.50;;;2.28;;
50851;SDS011;43953;45.508;-122.806;2023-09-30T01:01:14;9.27;;;2.20;;
50851;SDS011;43953;45.508;-122.806;2023-09-30T01:01:47;7.60;;;2.40;;
50851;SDS011;43953;45.508;-122.806;2023-09-30T01:02:18;8.95;;;2.40;;
50851;SDS011;43953;45.508;-122.806;2023-09-30T01:02:50;11.30;;;2.65;;
50851;SDS011;43953;45.508;-122.806;2023-09-30T01:03:23;8.45;;;2.70;;
50851;SDS011;43953;45.508;-122.806;2023-09-30T01:03:55;11.75;;;2.58;;
50851;SDS011;43953;45.508;-122.806;2023-09-30T01:04:29;12.60;;;3.10;;
50851;SDS011;43953;45.508;-122.806;2023-09-30T01:05:01;14.25;;;3.38;;
50851;SDS011;43953;45.508;-122.806;2023-09-30T01:05:33;8.60;;;3.25;;
50851;SDS011;43953;45.508;-122.806;2023-09-30T01:06:05;5.30;;;2.65;;
50851;SDS011;43953;45.508;-122.806;2023-09-30T01:06:36;6.93;;;2.67;;
50851;SDS011;43953;45.508;-122.806;2023-09-30T01:07:08;13.50;;;3.63;;
50851;SDS011;43953;45.508;-122.806;2023-09-30T01:07:40;7.88;;;2.90;;
50851;SDS011;43953;45.508;-122.806;2023-09-30T01:08:12;14.68;;;3.40;;
50851;SDS011;43953;45.508;-122.806;2023-09-30T01:08:44;14.32;;;4.03;;
50851;SDS011;43953;45.508;-122.806;2023-09-30T01:09:15;14.40;;;3.58;;
50851;SDS011;43953;45.508;-122.806;2023-09-30T01:09:47;7.53;;;3.17;;
50851;SDS011;43953;45.508;-122.806;2023-09-30T01:10:19;11.10;;;3.25;;
50851;SDS011;43953;45.508;-122.806;2023-09-30T01:10:51;10.60;;;3.22;;
50851;SDS011;43953;45.508;-122.806;2023-09-30T01:11:23;8.85;;;2.88;;
50851;SDS011;43953;45.508;-122.806;2023-09-30T01:11:55;9.32;;;2.80;;
50851;SDS011;43953;45.508;-122.806;2023-09-30T01:12:27;13.85;;;3.38;;
50851;SDS011;43953;45.508;-122.806;2023-09-30T01:12:59;10.00;;;3.25;;
50851;SDS011;43953;45.508;-122.806;2023-09-30T01:13:34;10.48;;;2.80;;
50851;SDS011;43953;45.508;-122.806;2023-09-30T01:14:23;10.60;;;3.55;;
50851;SDS011;43953;45.508;-122.806;2023-09-30T01:14:59;12.70;;;3.17;;
50851;SDS011;43953;45.508;-122.806;2023-09-30T01:15:31;10.20;;;3.47;;
50851;SDS011;43953;45.508;-122.806;2023-09-30T01:16:03;12.52;;;3.10;;
50851;SDS011;43953;45.508;-122.806;2023-09-30T01:16:40;13.00;;;2.78;;
50851;SDS011;43953;45.508;-122.806;2023-09-30T01:17:12;7.25;;;3.00;;
50851;SDS011;43953;45.508;-122.806;2023-09-30T01:17:46;10.27;;;3.13;;
50851;SDS011;43953;45.508;-122.806;2023-09-30T01:18:18;12.63;;;3.15;;
50851;SDS011;43953;45.508;-122.806;2023-09-30T01:18:50;9.60;;;3.10;;
50851;SDS011;43953;45.508;-122.806;2023-09-30T01:19:22;10.05;;;2.92;;
50851;SDS011;43953;45.508;-122.806;2023-09-30T01:19:59;12.75;;;2.88;;
50851;SDS011;43953;45.508;-122.806;2023-09-30T01:20:31;12.60;;;3.20;;
50851;SDS011;43953;45.508;-122.806;2023-09-30T01:21:03;11.27;;;3.53;;
50851;SDS011;43953;45.508;-122.806;2023-09-30T01:21:36;10.48;;;2.78;;
50851;SDS011;43953;45.508;-122.806;2023-09-30T01:22:08;13.38;;;3.15;;
50851;SDS011;43953;45.508;-122.806;2023-09-30T01:22:40;9.77;;;2.90;;
50851;SDS011;43953;45.508;-122.806;2023-09-30T01:23:12;9.07;;;3.00;;
50851;SDS011;43953;45.508;-122.806;2023-09-30T01:23:43;14.90;;;3.28;;
50851;SDS011;43953;45.508;-122.806;2023-09-30T01:24:20;11.73;;;2.88;;
50851;SDS011;43953;45.508;-122.806;2023-09-30T01:24:52;12.95;;;2.60;;
50851;SDS011;43953;45.508;-122.806;2023-09-30T01:25:26;8.90;;;2.63;;
50851;SDS011;43953;45.508;-122.806;2023-09-30T01:26:02;10.40;;;2.53;;
50851;SDS011;43953;45.508;-122.806;2023-09-30T01:26:35;9.82;;;3.40;;
50851;SDS011;43953;45.508;-122.806;2023-09-30T01:27:12;10.48;;;3.13;;
50851;SDS011;43953;45.508;-122.806;2023-09-30T01:27:47;10.38;;;2.97;;
50851;SDS011;43953;45.508;-122.806;2023-09-30T01:28:19;10.27;;;2.60;;
50851;SDS011;43953;45.508;-122.806;2023-09-30T01:28:51;7.18;;;2.95;;
50851;SDS011;43953;45.508;-122.806;2023-09-30T01:29:25;10.85;;;3.28;;
50851;SDS011;43953;45.508;-122.806;2023-09-30T01:29:59;12.93;;;6.18;;
50851;SDS011;43953;45.508;-122.806;2023-09-30T01:30:31;11.30;;;5.10;;
50851;SDS011;43953;45.508;-122.806;2023-09-30T01:31:04;10.77;;;3.72;;
50851;SDS011;43953;45.508;-122.806;2023-09-30T01:31:37;8.82;;;3.30;;
50851;SDS011;43953;45.508;-122.806;2023-09-30T01:32:09;9.82;;;2.85;;
50851;SDS011;43953;45.508;-122.806;2023-09-30T01:32:41;11.15;;;3.65;;
50851;SDS011;43953;45.508;-122.806;2023-09-30T01:33:12;13.27;;;3.35;;
50851;SDS011;43953;45.508;-122.806;2023-09-30T01:33:44;7.47;;;3.15;;
50851;SDS011;43953;45.508;-122.806;2023-09-30T01:34:16;7.68;;;3.30;;
50851;SDS011;43953;45.508;-122.806;2023-09-30T01:34:48;10.75;;;4.47;;
50851;SDS011;43953;45.508;-122.806;2023-09-30T01:35:20;10.98;;;5.07;;
50851;SDS011;43953;45.508;-122.806;2023-09-30T01:35:52;12.60;;;4.07;;
50851;SDS011;43953;45.508;-122.806;2023-09-30T01:36:24;13.52;;;4.25;;
50851;SDS011;43953;45.508;-122.806;2023-09-30T01:36:56;7.97;;;4.35;;
50851;SDS011;43953;45.508;-122.806;2023-09-30T01:37:28;9.88;;;4.25;;
50851;SDS011;43953;45.508;-122.806;2023-09-30T01:38:00;9.02;;;4.43;;
50851;SDS011;43953;45.508;-122.806;2023-09-30T01:38:32;9.55;;;4.68;;
50851;SDS011;43953;45.508;-122.806;2023-09-30T01:39:03;10.05;;;4.00;;
50851;SDS011;43953;45.508;-122.806;2023-09-30T01:39:37;11.00;;;4.60;;
50851;SDS011;43953;45.508;-122.806;2023-09-30T01:40:10;11.75;;;4.78;;
50851;SDS011;43953;45.508;-122.806;2023-09-30T01:40:42;7.45;;;4.72;;
50851;SDS011;43953;45.508;-122.806;2023-09-30T01:41:14;12.02;;;5.00;;
50851;SDS011;43953;45.508;-122.806;2023-09-30T01:41:47;9.70;;;4.63;;
50851;SDS011;43953;45.508;-122.806;2023-09-30T01:42:19;10.60;;;5.18;;
50851;SDS011;43953;45.508;-122.806;2023-09-30T01:42:50;9.75;;;4.50;;
50851;SDS011;43953;45.508;-122.806;2023-09-30T01:43:22;9.10;;;5.45;;
50851;SDS011;43953;45.508;-122.806;2023-09-30T01:43:54;10.23;;;5.45;;
50851;SDS011;43953;45.508;-122.806;2023-09-30T01:44:26;8.55;;;5.30;;
50851;SDS011;43953;45.508;-122.806;2023-09-30T01:44:58;10.00;;;5.05;;
50851;SDS011;43953;45.508;-122.806;2023-09-30T01:45:30;8.45;;;4.50;;
50851;SDS011;43953;45.508;-122.806;2023-09-30T01:46:01;9.05;;;5.10;;
50851;SDS011;43953;45.508;-122.806;2023-09-30T01:46:33;9.38;;;4.50;;
50851;SDS011;43953;45.508;-122.806;2023-09-30T01:47:05;5.35;;;4.70;;
50851;SDS011;43953;45.508;-122.806;2023-09-30T01:47:37;12.65;;;4.90;;
50851;SDS011;43953;45.508;-122.806;2023-09-30T01:48:08;10.05;;;5.05;;
50851;SDS011;43953;45.508;-122.806;2023-09-30T01:48:41;8.73;;;4.90;;
50851;SDS011;43953;45.508;-122.806;2023-09-30T01:49:14;10.90;;;4.95;;
50851;SDS011;43953;45.508;-122.806;2023-09-30T01:49:46;8.50;;;4.60;;
50851;SDS011;43953;45.508;-122.806;2023-09-30T01:50:17;10.57;;;4.90;;
50851;SDS011;43953;45.508;-122.806;2023-09-30T01:50:50;10.13;;;4.65;;
50851;SDS011;43953;45.508;-122.806;2023-09-30T01:51:25;9.02;;;4.65;;
50851;SDS011;43953;45.508;-122.806;2023-09-30T01:51:58;8.48;;;4.63;;
50851;SDS011;43953;45.508;-122.806;2023-09-30T01:52:30;9.18;;;4.22;;
50851;SDS011;43953;45.508;-122.806;2023-09-30T01:53:02;9.13;;;5.00;;
50851;SDS011;43953;45.508;-122.806;2023-09-30T01:53:34;5.32;;;4.30;;
50851;SDS011;43953;45.508;-122.806;2023-09-30T01:54:06;8.95;;;5.10;;
50851;SDS011;43953;45.508;-122.806;2023-09-30T01:54:41;9.23;;;4.53;;
50851;SDS011;43953;45.508;-122.806;2023-09-30T01:55:13;7.13;;;4.65;;
50851;SDS011;43953;45.508;-122.806;2023-09-30T01:55:45;9.57;;;4.50;;
50851;SDS011;43953;45.508;-122.806;2023-09-30T01:56:18;11.02;;;5.15;;
50851;SDS011;43953;45.508;-122.806;2023-09-30T01:56:50;7.13;;;4.78;;
50851;SDS011;43953;45.508;-122.806;2023-09-30T01:57:22;9.35;;;4.13;;
50851;SDS011;43953;45.508;-122.806;2023-09-30T01:57:54;9.40;;;4.63;;
50851;SDS011;43953;45.508;-122.806;2023-09-30T01:58:26;6.90;;;4.63;;
50851;SDS011;43953;45.508;-122.806;2023-09-30T01:58:58;6.68;;;4.65;;
50851;SDS011;43953;45.508;-122.806;2023-09-30T01:59:31;7.07;;;4.28;;
50851;SDS011;43953;45.508;-122.806;2023-09-30T02:00:02;7.85;;;3.38;;
50851;SDS011;43953;45.508;-122.806;2023-09-30T02:00:38;8.55;;;4.07;;
50851;SDS011;43953;45.508;-122.806;2023-09-30T02:01:12;10.13;;;4.07;;
50851;SDS011;43953;45.508;-122.806;2023-09-30T02:01:44;10.32;;;4.38;;
50851;SDS011;43953;45.508;-122.806;2023-09-30T02:02:20;7.90;;;4.03;;
50851;SDS011;43953;45.508;-122.806;2023-09-30T02:03:14;8.57;;;4.22;;
50851;SDS011;43953;45.508;-122.806;2023-09-30T02:03:48;6.20;;;3.80;;
50851;SDS011;43953;45.508;-122.806;2023-09-30T02:04:21;9.65;;;4.53;;
50851;SDS011;43953;45.508;-122.806;2023-09-30T02:05:01;8.45;;;4.35;;
50851;SDS011;43953;45.508;-122.806;2023-09-30T02:05:39;10.50;;;4.38;;
50851;SDS011;43953;45.508;-122.806;2023-09-30T02:06:12;8.45;;;4.30;;
50851;SDS011;43953;45.508;-122.806;2023-09-30T02:06:48;8.20;;;4.50;;
50851;SDS011;43953;45.508;-122.806;2023-09-30T02:07:24;10.00;;;4.95;;
50851;SDS011;43953;45.508;-122.806;2023-09-30T02:08:07;8.10;;;4.25;;
50851;SDS011;43953;45.508;-122.806;2023-09-30T02:08:44;7.43;;;4.47;;
50851;SDS011;43953;45.508;-122.806;2023-09-30T02:09:22;8.55;;;4.10;;
50851;SDS011;43953;45.508;-122.806;2023-09-30T02:10:12;8.73;;;4.28;;
50851;SDS011;43953;45.508;-122.806;2023-09-30T02:10:43;10.00;;;4.50;;
50851;SDS011;43953;45.508;-122.806;2023-09-30T02:11:15;8.93;;;4.30;;
50851;SDS011;43953;45.508;-122.806;2023-09-30T02:11:47;9.80;;;3.92;;
50851;SDS011;43953;45.508;-122.806;2023-09-30T02:12:19;7.25;;;3.95;;
50851;SDS011;43953;45.508;-122.806;2023-09-30T02:12:50;9.85;;;3.92;;
50851;SDS011;43953;45.508;-122.806;2023-09-30T02:13:22;10.05;;;4.28;;
50851;SDS011;43953;45.508;-122.806;2023-09-30T02:13:54;7.80;;;4.00;;
50851;SDS011;43953;45.508;-122.806;2023-09-30T02:14:26;7.32;;;4.22;;
50851;SDS011;43953;45.508;-122.806;2023-09-30T02:14:58;8.75;;;3.70;;
50851;SDS011;43953;45.508;-122.806;2023-09-30T02:15:30;12.68;;;4.80;;
50851;SDS011;43953;45.508;-122.806;2023-09-30T02:16:01;8.48;;;4.20;;
50851;SDS011;43953;45.508;-122.806;2023-09-30T02:16:33;8.35;;;3.95;;
50851;SDS011;43953;45.508;-122.806;2023-09-30T02:17:05;8.13;;;3.85;;
50851;SDS011;43953;45.508;-122.806;2023-09-30T02:17:37;5.78;;;3.83;;
50851;SDS011;43953;45.508;-122.806;2023-09-30T02:18:08;7.70;;;4.53;;
50851;SDS011;43953;45.508;-122.806;2023-09-30T02:18:42;7.20;;;4.03;;
50851;SDS011;43953;45.508;-122.806;2023-09-30T02:19:18;8.43;;;4.15;;
50851;SDS011;43953;45.508;-122.806;2023-09-30T02:19:50;8.27;;;4.63;;
50851;SDS011;43953;45.508;-122.806;2023-09-30T02:20:24;7.70;;;3.60;;
50851;SDS011;43953;45.508;-122.806;2023-09-30T02:20:56;5.72;;;3.60;;
50851;SDS011;43953;45.508;-122.806;2023-09-30T02:21:30;8.27;;;3.75;;
50851;SDS011;43953;45.508;-122.806;2023-09-30T02:22:02;7.28;;;4.10;;
50851;SDS011;43953;45.508;-122.806;2023-09-30T02:22:33;8.23;;;4.07;;
50851;SDS011;43953;45.508;-122.806;2023-09-30T02:23:07;8.00;;;4.40;;
50851;SDS011;43953;45.508;-122.806;2023-09-30T02:23:41;9.10;;;3.90;;
50851;SDS011;43953;45.508;-122.806;2023-09-30T02:24:18;7.05;;;3.92;;
50851;SDS011;43953;45.508;-122.806;2023-09-30T02:24:50;8.93;;;4.18;;
50851;SDS011;43953;45.508;-122.806;2023-09-30T02:25:22;7.68;;;3.90;;
50851;SDS011;43953;45.508;-122.806;2023-09-30T02:25:53;8.50;;;4.50;;
50851;SDS011;43953;45.508;-122.806;2023-09-30T02:26:25;7.93;;;3.72;;
50851;SDS011;43953;45.508;-122.806;2023-09-30T02:26:58;9.63;;;4.07;;
50851;SDS011;43953;45.508;-122.806;2023-09-30T02:27:30;5.88;;;3.72;;
50851;SDS011;43953;45.508;-122.806;2023-09-30T02:28:01;8.20;;;3.92;;
50851;SDS011;43953;45.508;-122.806;2023-09-30T02:28:33;8.43;;;4.00;;
50851;SDS011;43953;45.508;-122.806;2023-09-30T02:29:05;7.30;;;4.03;;
50851;SDS011;43953;45.508;-122.806;2023-09-30T02:29:38;8.43;;;4.05;;
50851;SDS011;43953;45.508;-122.806;2023-09-30T02:30:10;10.18;;;4.72;;
50851;SDS011;43953;45.508;-122.806;2023-09-30T02:30:46;5.05;;;3.42;;
50851;SDS011;43953;45.508;-122.806;2023-09-30T02:31:19;7.50;;;3.70;;
50851;SDS011;43953;45.508;-122.806;2023-09-30T02:31:51;5.57;;;3.55;;
50851;SDS011;43953;45.508;-122.806;2023-09-30T02:32:25;8.43;;;4.18;;
50851;SDS011;43953;45.508;-122.806;2023-09-30T02:32:57;8.80;;;3.83;;
50851;SDS011;43953;45.508;-122.806;2023-09-30T02:33:29;5.13;;;3.70;;
50851;SDS011;43953;45.508;-122.806;2023-09-30T02:34:00;8.88;;;4.03;;
50851;SDS011;43953;45.508;-122.806;2023-09-30T02:34:33;7.35;;;3.83;;
50851;SDS011;43953;45.508;-122.806;2023-09-30T02:35:06;5.78;;;3.72;;
50851;SDS011;43953;45.508;-122.806;2023-09-30T02:35:43;6.57;;;4.05;;
50851;SDS011;43953;45.508;-122.806;2023-09-30T02:36:16;6.53;;;3.83;;
50851;SDS011;43953;45.508;-122.806;2023-09-30T02:36:48;6.50;;;3.58;;
50851;SDS011;43953;45.508;-122.806;2023-09-30T02:37:19;10.40;;;4.18;;
50851;SDS011;43953;45.508;-122.806;2023-09-30T02:37:51;6.60;;;4.10;;
50851;SDS011;43953;45.508;-122.806;2023-09-30T02:38:23;7.32;;;3.85;;
50851;SDS011;43953;45.508;-122.806;2023-09-30T02:38:55;8.60;;;3.85;;
50851;SDS011;43953;45.508;-122.806;2023-09-30T02:39:28;7.75;;;4.18;;
50851;SDS011;43953;45.508;-122.806;2023-09-30T02:40:00;9.00;;;4.05;;
50851;SDS011;43953;45.508;-122.806;2023-09-30T02:40:36;6.03;;;3.88;;
50851;SDS011;43953;45.508;-122.806;2023-09-30T02:41:09;5.78;;;3.42;;
50851;SDS011;43953;45.508;-122.806;2023-09-30T02:41:40;6.10;;;3.40;;
50851;SDS011;43953;45.508;-122.806;2023-09-30T02:42:12;6.32;;;3.58;;
50851;SDS011;43953;45.508;-122.806;2023-09-30T02:42:44;5.68;;;3.42;;
50851;SDS011;43953;45.508;-122.806;2023-09-30T02:43:15;6.40;;;3.50;;
50851;SDS011;43953;45.508;-122.806;2023-09-30T02:43:47;6.78;;;3.45;;
50851;SDS011;43953;45.508;-122.806;2023-09-30T02:44:19;7.43;;;3.70;;
50851;SDS011;43953;45.508;-122.806;2023-09-30T02:44:51;6.35;;;3.75;;
50851;SDS011;43953;45.508;-122.806;2023-09-30T02:45:22;4.97;;;3.45;;
50851;SDS011;43953;45.508;-122.806;2023-09-30T02:45:54;4.88;;;3.70;;
50851;SDS011;43953;45.508;-122.806;2023-09-30T02:46:26;8.20;;;3.85;;
50851;SDS011;43953;45.508;-122.806;2023-09-30T02:46:58;6.10;;;3.38;;
50851;SDS011;43953;45.508;-122.806;2023-09-30T02:47:30;9.30;;;3.75;;
50851;SDS011;43953;45.508;-122.806;2023-09-30T02:48:02;6.80;;;3.75;;
50851;SDS011;43953;45.508;-122.806;2023-09-30T02:48:34;9.35;;;3.88;;
50851;SDS011;43953;45.508;-122.806;2023-09-30T02:49:09;7.85;;;3.78;;
50851;SDS011;43953;45.508;-122.806;2023-09-30T02:49:40;6.47;;;3.58;;
50851;SDS011;43953;45.508;-122.806;2023-09-30T02:50:12;8.20;;;3.65;;
50851;SDS011;43953;45.508;-122.806;2023-09-30T02:50:44;8.98;;;3.72;;
50851;SDS011;43953;45.508;-122.806;2023-09-30T02:51:16;7.60;;;4.20;;
50851;SDS011;43953;45.508;-122.806;2023-09-30T02:51:48;7.18;;;3.97;;
50851;SDS011;43953;45.508;-122.806;2023-09-30T02:52:19;7.78;;;4.20;;
50851;SDS011;43953;45.508;-122.806;2023-09-30T02:52:51;10.50;;;3.83;;
50851;SDS011;43953;45.508;-122.806;2023-09-30T02:53:23;9.18;;;3.90;;
50851;SDS011;43953;45.508;-122.806;2023-09-30T02:53:55;9.55;;;3.70;;
50851;SDS011;43953;45.508;-122.806;2023-09-30T02:54:26;8.85;;;3.92;;
50851;SDS011;43953;45.508;-122.806;2023-09-30T02:54:58;9.25;;;4.10;;
50851;SDS011;43953;45.508;-122.806;2023-09-30T02:55:30;7.10;;;3.63;;
50851;SDS011;43953;45.508;-122.806;2023-09-30T02:56:02;11.50;;;4.30;;
50851;SDS011;43953;45.508;-122.806;2023-09-30T02:56:35;8.35;;;3.95;;
50851;SDS011;43953;45.508;-122.806;2023-09-30T02:57:07;6.53;;;3.20;;
50851;SDS011;43953;45.508;-122.806;2023-09-30T02:57:40;7.60;;;3.67;;
50851;SDS011;43953;45.508;-122.806;2023-09-30T02:58:11;12.20;;;4.20;;
50851;SDS011;43953;45.508;-122.806;2023-09-30T02:58:43;6.18;;;3.55;;
50851;SDS011;43953;45.508;-122.806;2023-09-30T02:59:15;8.02;;;3.78;;
50851;SDS011;43953;45.508;-122.806;2023-09-30T02:59:48;8.35;;;3.50;;
50851;SDS011;43953;45.508;-122.806;2023-09-30T03:00:21;9.52;;;3.88;;
50851;SDS011;43953;45.508;-122.806;2023-09-30T03:00:56;5.55;;;3.50;;
50851;SDS011;43953;45.508;-122.806;2023-09-30T03:01:29;8.30;;;3.47;;
50851;SDS011;43953;45.508;-122.806;2023-09-30T03:02:01;8.32;;;3.35;;
50851;SDS011;43953;45.508;-122.806;2023-09-30T03:02:33;5.82;;;3.50;;
50851;SDS011;43953;45.508;-122.806;2023-09-30T03:03:05;8.48;;;3.85;;
50851;SDS011;43953;45.508;-122.806;2023-09-30T03:03:37;7.88;;;3.53;;
50851;SDS011;43953;45.508;-122.806;2023-09-30T03:04:10;9.65;;;3.97;;
50851;SDS011;43953;45.508;-122.806;2023-09-30T03:04:43;8.70;;;4.32;;
50851;SDS011;43953;45.508;-122.806;2023-09-30T03:05:15;5.90;;;3.80;;
50851;SDS011;43953;45.508;-122.806;2023-09-30T03:05:48;8.50;;;3.85;;
50851;SDS011;43953;45.508;-122.806;2023-09-30T03:06:20;11.20;;;3.88;;
50851;SDS011;43953;45.508;-122.806;2023-09-30T03:06:52;11.93;;;3.80;;
50851;SDS011;43953;45.508;-122.806;2023-09-30T03:07:27;9.90;;;3.50;;
50851;SDS011;43953;45.508;-122.806;2023-09-30T03:08:04;10.32;;;3.92;;